Time;durP1;ratioP1;P1;durP2;ratioP2;P2;SDS_P1;SDS_P2;PMS_P1;PMS_P2;Temp;Humidity;BMP_temperature;BMP_pressure;BME280_temperature;BME280_humidity;BME280_pressure;Samples;Min_cycle;Max_cycle;Signal;HPM_P1;HPM_P2
2022/12/03 00:00:13;;;;;;;21.63;13.53;;;;;;;;;;5042132;28;20275;-76
2022/12/03 00:02:40;;;;;;;23.70;13.40;;;;;;;;;;5042029;28;20025;-78
2022/12/03 00:05:06;;;;;;;21.80;13.07;;;;;;;;;;5058709;28;20319;-76
2022/12/03 00:07:32;;;;;;;23.10;13.93;;;;;;;;;;5041375;28;20681;-76
2022/12/03 00:09:58;;;;;;;22.20;13.33;;;;;;;;;;5041167;28;20307;-75
2022/12/03 00:12:24;;;;;;;21.97;14.07;;;;;;;;;;5039105;28;20311;-76
2022/12/03 00:14:50;;;;;;;19.80;13.10;;;;;;;;;;5058137;28;20362;-75
2022/12/03 00:17:16;;;;;;;19.77;12.27;;;;;;;;;;5043719;28;20287;-76
2022/12/03 00:19:42;;;;;;;20.63;13.27;;;;;;;;;;5057732;28;20279;-75
2022/12/03 00:22:08;;;;;;;21.93;13.73;;;;;;;;;;5057518;28;20290;-75
2022/12/03 00:24:34;;;;;;;19.10;12.27;;;;;;;;;;5059021;28;20275;-75
2022/12/03 00:27:00;;;;;;;20.23;12.83;;;;;;;;;;5049289;28;20040;-75
2022/12/03 00:29:32;;;;;;;18.30;11.77;;;;;;;;;;5059205;28;20425;-75
2022/12/03 00:31:58;;;;;;;19.55;11.88;;;;;;;;;;5056811;28;20288;-74
2022/12/03 00:34:24;;;;;;;18.50;11.87;;;;;;;;;;5041293;28;20129;-73
2022/12/03 00:36:50;;;;;;;18.60;10.50;;;;;;;;;;5045749;28;20323;-75
2022/12/03 00:39:16;;;;;;;18.33;11.27;;;;;;;;;;5058713;28;20041;-76
2022/12/03 00:41:42;;;;;;;19.00;11.43;;;;;;;;;;5042619;28;20290;-75
2022/12/03 00:44:10;;;;;;;17.03;11.10;;;;;;;;;;5043042;28;20040;-76
2022/12/03 00:46:36;;;;;;;18.63;10.93;;;;;;;;;;5045988;28;20354;-77
2022/12/03 00:49:02;;;;;;;13.77;9.23;;;;;;;;;;5056062;28;20409;-74
2022/12/03 00:51:28;;;;;;;16.80;10.90;;;;;;;;;;5041238;28;20329;-75
2022/12/03 00:53:54;;;;;;;18.70;10.33;;;;;;;;;;5043219;28;20292;-74
2022/12/03 00:56:20;;;;;;;19.47;10.73;;;;;;;;;;5041505;28;20282;-74
2022/12/03 00:58:46;;;;;;;35.03;19.10;;;;;;;;;;5041310;28;20333;-75
2022/12/03 01:01:12;;;;;;;22.57;13.37;;;;;;;;;;5056449;28;20286;-75
2022/12/03 01:03:38;;;;;;;16.27;10.77;;;;;;;;;;5040429;28;20279;-75
2022/12/03 01:06:04;;;;;;;14.33;10.00;;;;;;;;;;5053260;28;20287;-76
2022/12/03 01:08:30;;;;;;;16.13;9.90;;;;;;;;;;5045525;28;20271;-74
2022/12/03 01:10:56;;;;;;;15.33;9.30;;;;;;;;;;5037633;28;20349;-75
2022/12/03 01:13:22;;;;;;;13.07;9.07;;;;;;;;;;5040922;28;20525;-74
2022/12/03 01:15:49;;;;;;;21.60;10.03;;;;;;;;;;5037107;28;20029;-75
2022/12/03 01:18:15;;;;;;;13.87;9.47;;;;;;;;;;5047507;28;20113;-77
2022/12/03 01:20:41;;;;;;;14.33;8.57;;;;;;;;;;5051465;28;20274;-74
2022/12/03 01:23:09;;;;;;;12.37;8.33;;;;;;;;;;5051073;28;20267;-74
2022/12/03 01:25:35;;;;;;;12.10;8.00;;;;;;;;;;5051912;28;20029;-75
2022/12/03 01:28:04;;;;;;;13.80;8.43;;;;;;;;;;5051996;28;20345;-74
2022/12/03 01:32:15;;;;;;;13.40;8.23;;;;;;;;;;5052065;28;20021;-76
2022/12/03 01:33:17;;;;;;;14.40;8.47;;;;;;;;;;5060197;28;20294;-75
2022/12/03 01:35:43;;;;;;;13.00;8.80;;;;;;;;;;5049136;28;20279;-75
2022/12/03 01:38:09;;;;;;;13.30;9.03;;;;;;;;;;5051272;28;20033;-75
2022/12/03 01:40:35;;;;;;;13.83;8.43;;;;;;;;;;5048984;28;20025;-75
2022/12/03 01:43:01;;;;;;;11.50;7.90;;;;;;;;;;5052498;28;20291;-75
2022/12/03 01:45:27;;;;;;;15.20;8.23;;;;;;;;;;5051564;28;20306;-75
2022/12/03 01:47:56;;;;;;;13.50;7.97;;;;;;;;;;5051229;28;20128;-75
2022/12/03 01:50:32;;;;;;;13.37;8.13;;;;;;;;;;5053304;28;20311;-77
2022/12/03 01:52:59;;;;;;;12.30;8.37;;;;;;;;;;5041439;28;20263;-75
2022/12/03 01:55:26;;;;;;;14.90;9.00;;;;;;;;;;5057132;28;20287;-74
2022/12/03 01:58:01;;;;;;;12.83;7.93;;;;;;;;;;5046112;28;20024;-76
2022/12/03 02:00:28;;;;;;;12.80;8.20;;;;;;;;;;5061789;28;20278;-77
2022/12/03 02:02:56;;;;;;;48.27;24.93;;;;;;;;;;5051078;28;20277;-76
2022/12/03 02:05:25;;;;;;;14.47;9.00;;;;;;;;;;5052047;28;20302;-76
2022/12/03 02:07:51;;;;;;;11.33;7.53;;;;;;;;;;5045662;28;20283;-75
2022/12/03 02:10:18;;;;;;;13.13;8.30;;;;;;;;;;5051178;28;20037;-76
2022/12/03 02:12:59;;;;;;;11.97;7.87;;;;;;;;;;5051924;28;20056;-76
2022/12/03 02:15:25;;;;;;;13.87;7.73;;;;;;;;;;5044480;28;20083;-75
2022/12/03 02:17:51;;;;;;;12.70;8.37;;;;;;;;;;5066283;28;20287;-75
2022/12/03 02:20:17;;;;;;;11.90;7.73;;;;;;;;;;5044966;28;20731;-76
2022/12/03 02:23:04;;;;;;;11.73;7.67;;;;;;;;;;5062785;28;20272;-75
2022/12/03 02:25:34;;;;;;;11.40;7.20;;;;;;;;;;5044811;28;20041;-74
2022/12/03 02:28:01;;;;;;;22.50;8.73;;;;;;;;;;5046002;28;20260;-74
2022/12/03 02:30:28;;;;;;;10.77;7.33;;;;;;;;;;5053656;28;20263;-77
2022/12/03 02:32:54;;;;;;;26.60;14.73;;;;;;;;;;5053861;28;20371;-77
2022/12/03 02:35:22;;;;;;;41.60;21.27;;;;;;;;;;5073380;28;20327;-78
2022/12/03 02:37:50;;;;;;;19.43;11.40;;;;;;;;;;5056463;28;20287;-78
2022/12/03 02:40:19;;;;;;;13.07;8.37;;;;;;;;;;5057253;28;20029;-77
2022/12/03 02:42:45;;;;;;;11.50;7.83;;;;;;;;;;5048789;28;20588;-77
2022/12/03 02:45:11;;;;;;;12.80;7.90;;;;;;;;;;5044640;28;20315;-78
2022/12/03 02:47:42;;;;;;;13.07;8.23;;;;;;;;;;5059528;28;20275;-78
2022/12/03 02:50:09;;;;;;;12.20;7.93;;;;;;;;;;5063152;28;20043;-78
2022/12/03 02:52:35;;;;;;;14.60;8.77;;;;;;;;;;5054604;28;20260;-78
2022/12/03 02:55:02;;;;;;;12.80;8.23;;;;;;;;;;5056509;28;20028;-78
2022/12/03 02:57:28;;;;;;;13.40;8.37;;;;;;;;;;5055327;28;20463;-78
2022/12/03 02:59:54;;;;;;;11.17;7.47;;;;;;;;;;5079399;28;20323;-78
2022/12/03 03:02:20;;;;;;;12.80;7.83;;;;;;;;;;5047717;28;20021;-78
2022/12/03 03:04:49;;;;;;;12.63;8.17;;;;;;;;;;5056196;28;20052;-78
2022/12/03 03:07:18;;;;;;;15.17;8.90;;;;;;;;;;5054957;28;20081;-78
2022/12/03 03:09:44;;;;;;;14.10;9.03;;;;;;;;;;5062240;28;20021;-78
2022/12/03 03:12:10;;;;;;;14.13;8.50;;;;;;;;;;5055372;28;20269;-77
2022/12/03 03:14:47;;;;;;;13.10;8.80;;;;;;;;;;5056760;28;20715;-77
2022/12/03 03:17:16;;;;;;;13.83;8.90;;;;;;;;;;5070211;28;20361;-78
2022/12/03 03:19:42;;;;;;;12.77;8.30;;;;;;;;;;5046180;28;20272;-78
2022/12/03 03:22:09;;;;;;;14.10;8.93;;;;;;;;;;5050096;28;20029;-78
2022/12/03 03:24:35;;;;;;;12.70;8.77;;;;;;;;;;5055861;28;20029;-78
2022/12/03 03:27:01;;;;;;;16.73;9.30;;;;;;;;;;5055801;28;20025;-78
2022/12/03 03:29:27;;;;;;;14.27;9.60;;;;;;;;;;5052712;28;20283;-78
2022/12/03 03:31:54;;;;;;;14.43;9.03;;;;;;;;;;5055493;28;20025;-78
2022/12/03 03:34:20;;;;;;;16.17;8.80;;;;;;;;;;5064359;28;20029;-77
2022/12/03 03:36:46;;;;;;;13.37;8.97;;;;;;;;;;5063991;28;20314;-78
2022/12/03 03:39:15;;;;;;;15.47;9.70;;;;;;;;;;5055357;28;20064;-78
2022/12/03 03:41:41;;;;;;;12.83;8.63;;;;;;;;;;5055133;28;20029;-79
2022/12/03 03:44:08;;;;;;;15.33;9.77;;;;;;;;;;5055505;28;20036;-77
2022/12/03 03:46:34;;;;;;;13.87;8.97;;;;;;;;;;5055205;28;20029;-78
2022/12/03 03:49:01;;;;;;;15.93;9.07;;;;;;;;;;5065144;28;20025;-78
2022/12/03 03:51:27;;;;;;;16.03;8.83;;;;;;;;;;5071006;28;20020;-78
2022/12/03 03:53:54;;;;;;;12.97;8.67;;;;;;;;;;5054029;28;20033;-78
2022/12/03 03:56:20;;;;;;;14.73;8.73;;;;;;;;;;5055256;28;20309;-78
2022/12/03 03:58:49;;;;;;;17.63;9.80;;;;;;;;;;5055363;28;20310;-78
2022/12/03 04:01:16;;;;;;;17.47;10.80;;;;;;;;;;5057845;28;20349;-77
2022/12/03 04:03:42;;;;;;;17.30;10.03;;;;;;;;;;5058988;28;20303;-78
2022/12/03 04:06:08;;;;;;;19.47;10.93;;;;;;;;;;5066297;28;20053;-78
2022/12/03 04:08:35;;;;;;;17.37;11.10;;;;;;;;;;5054760;28;20302;-76
2022/12/03 04:13:45;;;;;;;17.43;10.90;;;;;;;;;;5055455;28;20778;-78
2022/12/03 04:16:11;;;;;;;17.93;10.93;;;;;;;;;;5055432;28;20280;-78
2022/12/03 04:18:43;;;;;;;17.80;10.47;;;;;;;;;;5058673;28;20035;-78
2022/12/03 04:24:01;;;;;;;17.17;9.70;;;;;;;;;;5062386;28;20120;-78
2022/12/03 04:29:12;;;;;;;16.83;11.07;;;;;;;;;;5054967;28;20286;-79
2022/12/03 04:37:09;;;;;;;18.27;10.50;;;;;;;;;;5063096;28;20290;-79
2022/12/03 04:39:35;;;;;;;17.63;11.00;;;;;;;;;;5073367;28;20286;-78
2022/12/03 04:42:01;;;;;;;18.00;10.97;;;;;;;;;;5063755;28;20267;-80
2022/12/03 04:44:34;;;;;;;18.77;10.83;;;;;;;;;;5057775;28;20104;-79
2022/12/03 04:47:20;;;;;;;19.87;11.57;;;;;;;;;;5063410;28;20290;-78
2022/12/03 04:49:48;;;;;;;17.93;10.73;;;;;;;;;;5052271;28;20260;-78
2022/12/03 04:52:15;;;;;;;20.50;10.90;;;;;;;;;;5063961;28;20309;-79
2022/12/03 04:54:41;;;;;;;20.00;11.43;;;;;;;;;;5055294;28;20766;-78
2022/12/03 04:57:07;;;;;;;17.80;10.93;;;;;;;;;;5053428;28;20284;-79
2022/12/03 04:59:34;;;;;;;20.27;10.97;;;;;;;;;;5048013;28;20294;-78
2022/12/03 05:02:01;;;;;;;25.07;12.90;;;;;;;;;;5066605;28;20259;-78
2022/12/03 05:04:27;;;;;;;21.43;11.50;;;;;;;;;;5053726;28;20279;-79
2022/12/03 05:06:53;;;;;;;21.73;12.13;;;;;;;;;;5050942;28;20281;-78
2022/12/03 05:09:21;;;;;;;21.43;11.70;;;;;;;;;;5057126;28;20298;-79
2022/12/03 05:11:47;;;;;;;20.70;11.67;;;;;;;;;;5055061;28;20267;-78
2022/12/03 05:14:13;;;;;;;19.83;11.83;;;;;;;;;;5061859;28;20284;-77
2022/12/03 05:16:39;;;;;;;21.93;12.17;;;;;;;;;;5042242;28;20290;-78
2022/12/03 05:19:06;;;;;;;20.23;12.03;;;;;;;;;;5044693;28;20052;-78
2022/12/03 05:21:32;;;;;;;22.07;12.17;;;;;;;;;;5058114;28;20337;-78
2022/12/03 05:23:58;;;;;;;24.07;12.53;;;;;;;;;;5061108;28;20264;-78
2022/12/03 05:26:24;;;;;;;21.07;12.17;;;;;;;;;;5043567;28;20017;-78
2022/12/03 05:28:50;;;;;;;21.03;12.30;;;;;;;;;;5044328;28;20040;-77
2022/12/03 05:31:18;;;;;;;20.90;11.93;;;;;;;;;;5060167;28;20275;-77
2022/12/03 05:33:44;;;;;;;19.90;11.97;;;;;;;;;;5045232;28;20025;-77
2022/12/03 05:36:11;;;;;;;24.43;12.33;;;;;;;;;;5043048;28;20047;-78
2022/12/03 05:38:37;;;;;;;22.40;12.23;;;;;;;;;;5049686;28;20032;-78
2022/12/03 05:42:52;;;;;;;21.87;12.00;;;;;;;;;;5044157;28;20037;-78
2022/12/03 05:43:49;;;;;;;23.00;12.50;;;;;;;;;;5046531;28;20306;-77
2022/12/03 05:46:15;;;;;;;24.80;12.07;;;;;;;;;;5045826;28;20884;-79
2022/12/03 05:48:41;;;;;;;19.80;11.93;;;;;;;;;;5039454;28;20025;-77
2022/12/03 05:51:07;;;;;;;23.77;13.20;;;;;;;;;;5045057;28;21710;-77
2022/12/03 05:53:33;;;;;;;20.40;11.93;;;;;;;;;;5045860;28;20056;-77
2022/12/03 05:55:59;;;;;;;22.37;12.87;;;;;;;;;;5050288;28;20311;-77
2022/12/03 05:58:25;;;;;;;24.13;12.70;;;;;;;;;;5050242;28;20048;-78
2022/12/03 06:00:51;;;;;;;21.17;12.10;;;;;;;;;;5063771;28;20150;-78
2022/12/03 06:03:17;;;;;;;20.87;11.90;;;;;;;;;;5062092;28;20063;-79
2022/12/03 06:05:42;;;;;;;25.00;11.70;;;;;;;;;;5046831;28;21657;-77
2022/12/03 06:08:08;;;;;;;19.40;11.43;;;;;;;;;;5048760;28;20037;-77
2022/12/03 06:10:34;;;;;;;24.83;13.20;;;;;;;;;;5060422;28;21641;-78
2022/12/03 06:13:02;;;;;;;24.90;13.67;;;;;;;;;;5046511;28;20021;-77
2022/12/03 06:15:28;;;;;;;21.00;11.83;;;;;;;;;;5045525;28;20116;-76
2022/12/03 06:17:53;;;;;;;21.70;12.33;;;;;;;;;;5059755;28;20391;-78
2022/12/03 06:20:20;;;;;;;23.30;12.63;;;;;;;;;;5049935;28;20048;-79
2022/12/03 06:22:47;;;;;;;25.33;13.77;;;;;;;;;;5061193;28;20025;-76
2022/12/03 06:25:13;;;;;;;22.30;12.63;;;;;;;;;;5050355;28;21033;-78
2022/12/03 06:27:39;;;;;;;23.90;12.33;;;;;;;;;;5048267;28;20129;-78
2022/12/03 06:30:07;;;;;;;23.53;12.93;;;;;;;;;;5049407;28;21315;-78
2022/12/03 06:32:33;;;;;;;21.50;12.30;;;;;;;;;;5050299;28;20079;-78
2022/12/03 06:34:59;;;;;;;24.73;13.10;;;;;;;;;;5045203;28;20052;-78
2022/12/03 06:37:25;;;;;;;27.30;15.10;;;;;;;;;;5051335;28;20099;-77
2022/12/03 06:39:51;;;;;;;22.73;12.00;;;;;;;;;;5048029;28;20052;-77
2022/12/03 06:42:19;;;;;;;26.43;13.83;;;;;;;;;;5050098;28;20033;-78
2022/12/03 06:44:45;;;;;;;22.70;12.67;;;;;;;;;;5045889;28;20276;-78
2022/12/03 06:47:11;;;;;;;25.80;13.13;;;;;;;;;;5046265;28;20280;-78
2022/12/03 06:49:37;;;;;;;22.70;12.80;;;;;;;;;;5059715;28;20284;-77
2022/12/03 06:52:06;;;;;;;22.80;12.87;;;;;;;;;;5046180;28;20061;-78
2022/12/03 06:54:32;;;;;;;24.83;13.40;;;;;;;;;;5057128;28;20037;-77
2022/12/03 06:56:58;;;;;;;25.70;13.87;;;;;;;;;;5064245;28;20296;-79
2022/12/03 06:59:24;;;;;;;22.97;14.03;;;;;;;;;;5046357;28;20479;-77
2022/12/03 07:01:50;;;;;;;25.27;14.20;;;;;;;;;;5051413;28;20143;-79
2022/12/03 07:04:16;;;;;;;29.47;15.43;;;;;;;;;;5055675;28;20171;-78
2022/12/03 07:06:42;;;;;;;23.77;13.33;;;;;;;;;;5047971;28;20059;-78
2022/12/03 07:09:08;;;;;;;27.83;14.30;;;;;;;;;;5049432;28;20021;-78
2022/12/03 07:11:39;;;;;;;24.93;14.03;;;;;;;;;;5062831;28;20329;-78
2022/12/03 07:14:06;;;;;;;24.33;13.63;;;;;;;;;;5047981;28;20102;-77
2022/12/03 07:16:33;;;;;;;30.17;15.10;;;;;;;;;;5045668;28;20029;-78
2022/12/03 07:18:59;;;;;;;29.27;14.27;;;;;;;;;;5063185;28;20377;-78
2022/12/03 07:21:25;;;;;;;31.60;16.77;;;;;;;;;;5053582;28;20594;-78
2022/12/03 07:23:51;;;;;;;27.87;16.80;;;;;;;;;;5052808;28;20032;-78
2022/12/03 07:26:17;;;;;;;26.60;14.33;;;;;;;;;;5066450;28;20037;-76
2022/12/03 07:28:42;;;;;;;25.20;14.73;;;;;;;;;;5055731;28;20040;-78
2022/12/03 07:31:08;;;;;;;23.93;13.40;;;;;;;;;;5054762;28;20075;-78
2022/12/03 07:33:34;;;;;;;29.23;14.80;;;;;;;;;;5055690;28;20032;-78
2022/12/03 07:36:00;;;;;;;24.23;12.83;;;;;;;;;;5066041;28;20033;-77
2022/12/03 07:38:26;;;;;;;24.17;12.50;;;;;;;;;;5063548;28;20364;-78
2022/12/03 07:40:52;;;;;;;26.63;13.13;;;;;;;;;;5057581;28;20031;-78
2022/12/03 07:43:21;;;;;;;24.90;13.40;;;;;;;;;;5049885;28;20033;-77
2022/12/03 07:45:47;;;;;;;23.83;13.73;;;;;;;;;;5052002;28;20029;-78
2022/12/03 07:48:13;;;;;;;28.13;17.90;;;;;;;;;;5055010;28;20271;-77
2022/12/03 07:50:39;;;;;;;25.87;14.67;;;;;;;;;;5055265;28;20354;-77
2022/12/03 07:53:05;;;;;;;25.07;13.20;;;;;;;;;;5055434;28;20371;-78
2022/12/03 07:55:31;;;;;;;22.17;12.13;;;;;;;;;;5064678;28;20263;-77
2022/12/03 07:57:57;;;;;;;23.20;12.73;;;;;;;;;;5062213;28;20369;-78
2022/12/03 08:00:23;;;;;;;22.83;11.37;;;;;;;;;;5054841;28;20029;-79
2022/12/03 08:02:49;;;;;;;22.73;11.90;;;;;;;;;;5058391;28;20025;-78
2022/12/03 08:05:15;;;;;;;21.40;10.37;;;;;;;;;;5054915;28;20337;-78
2022/12/03 08:07:41;;;;;;;18.30;10.33;;;;;;;;;;5055445;28;20029;-78
2022/12/03 08:10:07;;;;;;;21.93;11.97;;;;;;;;;;5054237;28;20604;-77
2022/12/03 08:12:41;;;;;;;23.73;11.53;;;;;;;;;;5051427;28;20560;-77
2022/12/03 08:15:13;;;;;;;20.17;10.33;;;;;;;;;;5056902;28;20267;-78
2022/12/03 08:17:41;;;;;;;21.65;11.48;;;;;;;;;;5057761;28;20628;-78
2022/12/03 08:20:16;;;;;;;22.90;11.63;;;;;;;;;;5052595;28;20159;-77
2022/12/03 08:22:43;;;;;;;18.87;11.27;;;;;;;;;;5052170;28;20025;-77
2022/12/03 08:25:29;;;;;;;18.83;10.73;;;;;;;;;;5056861;28;20268;-77
2022/12/03 08:27:59;;;;;;;20.73;11.13;;;;;;;;;;5056616;28;20667;-77
2022/12/03 08:30:33;;;;;;;22.57;11.53;;;;;;;;;;5054879;28;20750;-77
2022/12/03 08:32:59;;;;;;;19.73;10.37;;;;;;;;;;5053977;28;20724;-78
2022/12/03 08:35:27;;;;;;;21.43;11.90;;;;;;;;;;5054381;28;20116;-78
2022/12/03 08:38:01;;;;;;;22.40;10.60;;;;;;;;;;5062563;28;20321;-78
2022/12/03 08:40:38;;;;;;;19.90;10.13;;;;;;;;;;5056918;28;20279;-78
2022/12/03 08:43:20;;;;;;;20.77;10.53;;;;;;;;;;5068172;28;20736;-78
2022/12/03 08:45:48;;;;;;;17.03;9.67;;;;;;;;;;5054963;28;20021;-77
2022/12/03 08:48:26;;;;;;;20.07;10.23;;;;;;;;;;5053525;28;20053;-79
2022/12/03 08:50:57;;;;;;;19.33;10.30;;;;;;;;;;5065309;28;20404;-79
2022/12/03 08:53:31;;;;;;;23.30;11.37;;;;;;;;;;5055419;28;20282;-79
2022/12/03 08:55:59;;;;;;;16.50;10.37;;;;;;;;;;5054111;28;20024;-78
2022/12/03 08:58:39;;;;;;;20.47;10.60;;;;;;;;;;5055182;28;20044;-79
2022/12/03 09:01:05;;;;;;;19.23;9.73;;;;;;;;;;5054753;28;20021;-79
2022/12/03 09:03:31;;;;;;;21.17;10.93;;;;;;;;;;5053840;28;20091;-77
2022/12/03 09:05:57;;;;;;;48.97;23.83;;;;;;;;;;5053457;28;20036;-77
2022/12/03 09:08:23;;;;;;;27.20;14.27;;;;;;;;;;5053790;28;20036;-78
2022/12/03 09:10:49;;;;;;;20.00;10.37;;;;;;;;;;5054435;28;20356;-77
2022/12/03 09:13:15;;;;;;;18.00;10.23;;;;;;;;;;5054993;28;20366;-77
2022/12/03 09:15:41;;;;;;;19.70;11.33;;;;;;;;;;5049837;28;20438;-78
2022/12/03 09:18:08;;;;;;;21.97;10.50;;;;;;;;;;5054227;28;20021;-78
2022/12/03 09:20:34;;;;;;;25.83;12.70;;;;;;;;;;5055480;28;20025;-78
2022/12/03 09:23:00;;;;;;;23.60;12.83;;;;;;;;;;5053419;28;20029;-78
2022/12/03 09:25:26;;;;;;;21.40;11.93;;;;;;;;;;5053664;28;20021;-79
2022/12/03 09:27:52;;;;;;;19.17;10.20;;;;;;;;;;5052341;28;20025;-78
2022/12/03 09:30:18;;;;;;;20.27;11.97;;;;;;;;;;5051439;28;20028;-77
2022/12/03 09:32:44;;;;;;;21.03;13.80;;;;;;;;;;5052049;28;20044;-77
2022/12/03 09:35:11;;;;;;;18.67;10.83;;;;;;;;;;5053177;28;20025;-78
2022/12/03 09:37:39;;;;;;;37.57;23.07;;;;;;;;;;5053740;28;20029;-78
2022/12/03 09:40:06;;;;;;;20.50;11.77;;;;;;;;;;5051595;28;20032;-77
2022/12/03 09:42:32;;;;;;;20.60;11.13;;;;;;;;;;5054082;28;20098;-78
2022/12/03 09:44:58;;;;;;;23.77;13.53;;;;;;;;;;5053155;28;20866;-78
2022/12/03 09:47:24;;;;;;;22.73;12.80;;;;;;;;;;5053153;28;20059;-78
2022/12/03 09:49:56;;;;;;;19.03;11.60;;;;;;;;;;5044867;28;20036;-78
2022/12/03 09:52:27;;;;;;;22.90;12.05;;;;;;;;;;5053516;28;20091;-78
2022/12/03 09:54:55;;;;;;;30.53;17.57;;;;;;;;;;5053823;28;20021;-77
2022/12/03 09:57:21;;;;;;;31.33;16.00;;;;;;;;;;5046256;28;20026;-78
2022/12/03 09:59:47;;;;;;;29.20;13.70;;;;;;;;;;5063987;28;20029;-77
2022/12/03 10:02:22;;;;;;;19.13;10.93;;;;;;;;;;5044775;28;20021;-79
2022/12/03 10:04:48;;;;;;;16.63;9.60;;;;;;;;;;5053893;28;20021;-79
2022/12/03 10:07:14;;;;;;;19.87;11.17;;;;;;;;;;5053958;28;20036;-78
2022/12/03 10:09:40;;;;;;;17.87;10.77;;;;;;;;;;5060407;28;20040;-77
2022/12/03 10:12:09;;;;;;;17.03;10.53;;;;;;;;;;5050732;28;20086;-78
2022/12/03 10:14:35;;;;;;;17.93;10.77;;;;;;;;;;5061469;28;20026;-77
2022/12/03 10:17:01;;;;;;;24.80;17.03;;;;;;;;;;5054981;28;20053;-77
2022/12/03 10:19:30;;;;;;;28.97;19.17;;;;;;;;;;5053351;28;20033;-76
2022/12/03 10:21:56;;;;;;;33.73;25.27;;;;;;;;;;5052665;28;20110;-77
2022/12/03 10:24:30;;;;;;;22.70;14.50;;;;;;;;;;5055185;28;20039;-76
2022/12/03 10:26:57;;;;;;;23.97;14.43;;;;;;;;;;5048204;28;20033;-76
2022/12/03 10:29:29;;;;;;;21.00;11.77;;;;;;;;;;5063759;28;20031;-77
2022/12/03 10:32:05;;;;;;;25.35;12.73;;;;;;;;;;5053830;28;20118;-78
2022/12/03 10:34:32;;;;;;;22.40;12.57;;;;;;;;;;5043125;28;20032;-79
2022/12/03 10:37:11;;;;;;;25.07;15.27;;;;;;;;;;5067996;28;20021;-76
2022/12/03 10:39:55;;;;;;;20.20;11.73;;;;;;;;;;5070721;28;20032;-78
2022/12/03 10:42:22;;;;;;;17.07;10.10;;;;;;;;;;5080345;28;20086;-78
2022/12/03 10:44:52;;;;;;;19.80;10.47;;;;;;;;;;5060581;28;20129;-76
2022/12/03 10:47:19;;;;;;;18.83;9.80;;;;;;;;;;5060206;28;20369;-77
2022/12/03 10:49:58;;;;;;;17.80;10.77;;;;;;;;;;5066454;28;20083;-77
2022/12/03 10:52:26;;;;;;;25.07;16.57;;;;;;;;;;5063515;28;20029;-77
2022/12/03 10:54:55;;;;;;;19.20;11.73;;;;;;;;;;5053091;28;20121;-78
2022/12/03 10:57:22;;;;;;;26.67;15.50;;;;;;;;;;5057406;28;20365;-78
2022/12/03 10:59:48;;;;;;;52.37;27.13;;;;;;;;;;5056711;28;20087;-76
2022/12/03 11:02:22;;;;;;;35.60;20.53;;;;;;;;;;5055980;28;20059;-76
2022/12/03 11:04:48;;;;;;;24.40;14.17;;;;;;;;;;5053364;28;20025;-78
2022/12/03 11:07:15;;;;;;;20.57;11.57;;;;;;;;;;5048803;28;20037;-78
2022/12/03 11:09:43;;;;;;;17.90;10.70;;;;;;;;;;5063882;28;20035;-76
2022/12/03 11:12:20;;;;;;;17.33;10.90;;;;;;;;;;5060118;28;20033;-78
2022/12/03 11:14:56;;;;;;;18.50;10.50;;;;;;;;;;5054751;28;20105;-77
2022/12/03 11:17:41;;;;;;;20.50;10.63;;;;;;;;;;5044315;28;20030;-75
2022/12/03 11:20:22;;;;;;;19.27;11.43;;;;;;;;;;5045139;28;20036;-75
2022/12/03 11:22:49;;;;;;;17.10;9.77;;;;;;;;;;5046174;28;20037;-76
2022/12/03 11:25:24;;;;;;;16.00;9.50;;;;;;;;;;5060849;28;20155;-77
2022/12/03 11:28:09;;;;;;;19.63;11.03;;;;;;;;;;5044850;28;20063;-75
2022/12/03 11:30:51;;;;;;;16.90;9.97;;;;;;;;;;5060063;28;20102;-77
2022/12/03 11:33:21;;;;;;;28.77;17.33;;;;;;;;;;5043465;28;20029;-76
2022/12/03 11:36:01;;;;;;;21.37;13.23;;;;;;;;;;5062302;28;20037;-76
2022/12/03 11:38:37;;;;;;;18.53;11.27;;;;;;;;;;5060871;28;20040;-77
2022/12/03 11:41:22;;;;;;;20.37;11.53;;;;;;;;;;5044235;28;20051;-76
2022/12/03 11:43:57;;;;;;;19.03;10.93;;;;;;;;;;5045499;28;20082;-77
2022/12/03 11:46:24;;;;;;;20.10;11.40;;;;;;;;;;5046567;28;20111;-79
2022/12/03 11:48:53;;;;;;;19.53;10.97;;;;;;;;;;5045537;28;20036;-77
2022/12/03 11:51:23;;;;;;;19.77;10.90;;;;;;;;;;5057930;28;20037;-78
2022/12/03 11:53:51;;;;;;;17.43;10.60;;;;;;;;;;5061078;28;20097;-77
2022/12/03 11:56:18;;;;;;;16.73;11.03;;;;;;;;;;5059127;28;20120;-75
2022/12/03 11:58:46;;;;;;;18.30;10.37;;;;;;;;;;5059360;28;20039;-77
2022/12/03 12:01:13;;;;;;;19.07;11.07;;;;;;;;;;5044170;28;20145;-76
2022/12/03 12:03:42;;;;;;;19.87;11.77;;;;;;;;;;5059534;28;20025;-76
2022/12/03 12:06:08;;;;;;;18.70;10.97;;;;;;;;;;5046201;28;20048;-78
2022/12/03 12:08:36;;;;;;;18.57;10.83;;;;;;;;;;5055492;28;20033;-79
2022/12/03 12:11:03;;;;;;;17.23;10.73;;;;;;;;;;5046809;28;20102;-77
2022/12/03 12:13:35;;;;;;;19.67;11.17;;;;;;;;;;5045204;28;20124;-77
2022/12/03 12:16:05;;;;;;;19.70;12.02;;;;;;;;;;5064731;28;20057;-76
2022/12/03 12:18:37;;;;;;;19.63;11.30;;;;;;;;;;5054054;28;20044;-78
2022/12/03 12:21:22;;;;;;;19.80;11.65;;;;;;;;;;5045148;28;20170;-78
2022/12/03 12:23:48;;;;;;;18.90;11.13;;;;;;;;;;5047194;28;20059;-77
2022/12/03 12:26:14;;;;;;;23.03;12.13;;;;;;;;;;5059784;28;20037;-78
2022/12/03 12:28:40;;;;;;;21.60;12.60;;;;;;;;;;5045168;28;20079;-78
2022/12/03 12:31:12;;;;;;;21.77;12.17;;;;;;;;;;5043770;28;20102;-78
2022/12/03 12:33:38;;;;;;;21.63;10.85;;;;;;;;;;5044075;28;20029;-78
2022/12/03 12:36:10;;;;;;;22.90;13.00;;;;;;;;;;5046632;28;20025;-78
2022/12/03 12:38:38;;;;;;;22.35;12.15;;;;;;;;;;5046875;28;20048;-78
2022/12/03 12:41:07;;;;;;;22.47;12.73;;;;;;;;;;5058502;28;20036;-77
2022/12/03 12:43:34;;;;;;;20.30;12.10;;;;;;;;;;5045682;28;20024;-79
2022/12/03 12:46:05;;;;;;;22.77;12.20;;;;;;;;;;5046579;28;20025;-79
2022/12/03 12:48:33;;;;;;;21.90;13.43;;;;;;;;;;5060446;28;20048;-77
2022/12/03 12:51:06;;;;;;;24.73;13.90;;;;;;;;;;5059948;28;20040;-79
2022/12/03 12:53:33;;;;;;;20.47;12.57;;;;;;;;;;5042425;28;20029;-78
2022/12/03 12:56:01;;;;;;;21.83;12.80;;;;;;;;;;5043987;28;20039;-78
2022/12/03 12:58:31;;;;;;;23.97;14.20;;;;;;;;;;5044697;28;20029;-78
2022/12/03 13:00:59;;;;;;;22.30;13.13;;;;;;;;;;5047124;28;20029;-78
2022/12/03 13:03:27;;;;;;;22.27;13.57;;;;;;;;;;5042327;28;20044;-79
2022/12/03 13:05:53;;;;;;;23.30;13.03;;;;;;;;;;5042342;28;20028;-77
2022/12/03 13:08:19;;;;;;;22.93;13.73;;;;;;;;;;5043185;28;20072;-78
2022/12/03 13:10:45;;;;;;;25.97;14.30;;;;;;;;;;5045228;28;20060;-77
2022/12/03 13:13:41;;;;;;;24.67;13.83;;;;;;;;;;5045890;28;20037;-77
2022/12/03 13:16:10;;;;;;;23.47;12.90;;;;;;;;;;5025339;28;20098;-79
2022/12/03 13:18:36;;;;;;;25.00;14.40;;;;;;;;;;5063390;28;20037;-79
2022/12/03 13:21:12;;;;;;;24.03;13.53;;;;;;;;;;5043880;28;20035;-78
2022/12/03 13:23:40;;;;;;;23.33;13.60;;;;;;;;;;5047538;28;20016;-79
2022/12/03 13:26:14;;;;;;;22.53;13.60;;;;;;;;;;5045713;28;20034;-79
2022/12/03 13:28:41;;;;;;;23.50;13.63;;;;;;;;;;5065350;28;20120;-79
2022/12/03 13:31:26;;;;;;;20.40;12.67;;;;;;;;;;5049453;28;20024;-79
2022/12/03 13:33:53;;;;;;;22.97;12.97;;;;;;;;;;5051985;28;20033;-79
2022/12/03 13:36:20;;;;;;;22.53;13.37;;;;;;;;;;5046577;28;20167;-78
2022/12/03 13:38:46;;;;;;;24.37;13.77;;;;;;;;;;5048234;28;20026;-78
2022/12/03 13:42:37;;;;;;;25.63;14.73;;;;;;;;;;5058869;28;20029;-79
2022/12/03 13:44:00;;;;;;;25.37;13.50;;;;;;;;;;5050878;28;20102;-79
2022/12/03 13:46:35;;;;;;;25.87;14.93;;;;;;;;;;5047733;28;20025;-79
2022/12/03 13:49:01;;;;;;;27.77;14.47;;;;;;;;;;5060330;28;20116;-79
2022/12/03 13:51:29;;;;;;;25.87;14.73;;;;;;;;;;5049829;28;20459;-77
2022/12/03 13:53:57;;;;;;;20.77;13.23;;;;;;;;;;5054134;28;20098;-79
2022/12/03 13:56:23;;;;;;;22.10;14.00;;;;;;;;;;5053130;28;20036;-78
2022/12/03 13:58:49;;;;;;;22.17;13.17;;;;;;;;;;5051823;28;20025;-79
2022/12/03 14:01:15;;;;;;;21.93;13.13;;;;;;;;;;5044621;28;22047;-79
2022/12/03 14:03:43;;;;;;;24.60;14.30;;;;;;;;;;5056452;28;20492;-79
2022/12/03 14:06:09;;;;;;;21.93;13.67;;;;;;;;;;5052740;28;20033;-80
2022/12/03 14:08:36;;;;;;;21.90;13.23;;;;;;;;;;5047994;28;20033;-80
2022/12/03 14:11:04;;;;;;;24.93;13.30;;;;;;;;;;5048228;28;20038;-80
2022/12/03 14:13:30;;;;;;;26.50;14.43;;;;;;;;;;5068848;28;20033;-78
2022/12/03 14:15:56;;;;;;;23.30;14.43;;;;;;;;;;5060161;28;20089;-78
2022/12/03 14:18:22;;;;;;;24.77;13.43;;;;;;;;;;5058252;28;20483;-79
2022/12/03 14:20:48;;;;;;;22.20;13.10;;;;;;;;;;5057396;28;20029;-79
2022/12/03 14:23:14;;;;;;;26.10;14.70;;;;;;;;;;5055989;28;20082;-80
2022/12/03 14:25:42;;;;;;;24.93;14.30;;;;;;;;;;5058292;28;20017;-79
2022/12/03 14:28:08;;;;;;;26.77;15.10;;;;;;;;;;5057691;28;20040;-79
2022/12/03 14:30:35;;;;;;;26.13;15.17;;;;;;;;;;5047718;28;20426;-79
2022/12/03 14:33:01;;;;;;;28.87;15.97;;;;;;;;;;5068921;28;20025;-79
2022/12/03 14:35:27;;;;;;;26.67;16.37;;;;;;;;;;5054537;28;20063;-79
2022/12/03 14:37:53;;;;;;;40.20;20.67;;;;;;;;;;5056914;28;20086;-79